sensor_id;sensor_type;location;lat;lon;timestamp;temperature;humidity
17033;DHT22;63208;52.178;21.016;2023-06-22T01:00:16;20.10;99.90
17033;DHT22;63208;52.178;21.016;2023-06-22T01:02:45;20.10;99.90
17033;DHT22;63208;52.178;21.016;2023-06-22T01:05:12;20.20;99.90
17033;DHT22;63208;52.178;21.016;2023-06-22T01:07:44;20.90;99.90
17033;DHT22;63208;52.178;21.016;2023-06-22T01:10:18;20.40;99.90
17033;DHT22;63208;52.178;21.016;2023-06-22T01:12:51;20.40;99.90
17033;DHT22;63208;52.178;21.016;2023-06-22T01:15:23;20.40;99.90
17033;DHT22;63208;52.178;21.016;2023-06-22T01:17:52;20.30;99.90
17033;DHT22;63208;52.178;21.016;2023-06-22T01:20:20;20.40;99.90
17033;DHT22;63208;52.178;21.016;2023-06-22T01:23:05;20.40;99.90
17033;DHT22;63208;52.178;21.016;2023-06-22T01:25:38;20.60;99.90
17033;DHT22;63208;52.178;21.016;2023-06-22T01:28:20;20.70;99.90
17033;DHT22;63208;52.178;21.016;2023-06-22T01:30:51;20.80;99.90
17033;DHT22;63208;52.178;21.016;2023-06-22T01:33:26;20.80;99.90
17033;DHT22;63208;52.178;21.016;2023-06-22T01:35:54;20.80;99.90
17033;DHT22;63208;52.178;21.016;2023-06-22T01:38:20;20.80;99.90
17033;DHT22;63208;52.178;21.016;2023-06-22T01:40:48;20.70;99.90
17033;DHT22;63208;52.178;21.016;2023-06-22T01:43:16;20.50;99.90
17033;DHT22;63208;52.178;21.016;2023-06-22T01:45:43;20.50;99.90
17033;DHT22;63208;52.178;21.016;2023-06-22T01:48:12;20.40;99.90
17033;DHT22;63208;52.178;21.016;2023-06-22T01:50:38;20.50;99.90
17033;DHT22;63208;52.178;21.016;2023-06-22T01:53:05;20.60;99.90
17033;DHT22;63208;52.178;21.016;2023-06-22T01:55:33;20.60;99.90
17033;DHT22;63208;52.178;21.016;2023-06-22T01:58:00;20.60;99.90
17033;DHT22;63208;52.178;21.016;2023-06-22T02:00:30;20.50;99.90
17033;DHT22;63208;52.178;21.016;2023-06-22T02:03:01;20.60;99.90
17033;DHT22;63208;52.178;21.016;2023-06-22T02:05:34;20.60;99.90
17033;DHT22;63208;52.178;21.016;2023-06-22T02:08:07;20.60;99.90
17033;DHT22;63208;52.178;21.016;2023-06-22T02:10:36;20.60;99.90
17033;DHT22;63208;52.178;21.016;2023-06-22T02:13:07;20.50;99.90
17033;DHT22;63208;52.178;21.016;2023-06-22T02:15:34;20.40;99.90
17033;DHT22;63208;52.178;21.016;2023-06-22T02:18:01;20.40;99.90
17033;DHT22;63208;52.178;21.016;2023-06-22T02:20:30;20.20;99.90
17033;DHT22;63208;52.178;21.016;2023-06-22T02:22:57;20.20;99.90
17033;DHT22;63208;52.178;21.016;2023-06-22T02:25:24;20.10;99.90
17033;DHT22;63208;52.178;21.016;2023-06-22T02:27:51;20.10;99.90
17033;DHT22;63208;52.178;21.016;2023-06-22T02:30:17;20.10;99.90
17033;DHT22;63208;52.178;21.016;2023-06-22T02:32:44;20.10;99.90
17033;DHT22;63208;52.178;21.016;2023-06-22T02:35:11;20.10;99.90
17033;DHT22;63208;52.178;21.016;2023-06-22T02:37:40;20.10;99.90
17033;DHT22;63208;52.178;21.016;2023-06-22T02:40:08;20.00;99.90
17033;DHT22;63208;52.178;21.016;2023-06-22T02:42:35;19.90;99.90
17033;DHT22;63208;52.178;21.016;2023-06-22T02:45:03;19.90;99.90
17033;DHT22;63208;52.178;21.016;2023-06-22T02:47:30;19.90;99.90
17033;DHT22;63208;52.178;21.016;2023-06-22T02:49:56;19.80;99.90
17033;DHT22;63208;52.178;21.016;2023-06-22T02:52:23;19.80;99.90
17033;DHT22;63208;52.178;21.016;2023-06-22T02:54:51;19.80;99.90
17033;DHT22;63208;52.178;21.016;2023-06-22T02:57:18;19.90;99.90
17033;DHT22;63208;52.178;21.016;2023-06-22T02:59:45;19.80;99.90
17033;DHT22;63208;52.178;21.016;2023-06-22T03:02:12;19.80;99.90
17033;DHT22;63208;52.178;21.016;2023-06-22T03:04:38;19.80;99.90
17033;DHT22;63208;52.178;21.016;2023-06-22T03:07:05;19.80;99.90
17033;DHT22;63208;52.178;21.016;2023-06-22T03:09:32;19.90;99.90
17033;DHT22;63208;52.178;21.016;2023-06-22T03:12:00;19.90;99.90
17033;DHT22;63208;52.178;21.016;2023-06-22T03:14:28;19.80;99.90
17033;DHT22;63208;52.178;21.016;2023-06-22T03:16:55;19.90;99.90
17033;DHT22;63208;52.178;21.016;2023-06-22T03:21:56;19.80;99.90
17033;DHT22;63208;52.178;21.016;2023-06-22T03:24:23;19.90;99.90
17033;DHT22;63208;52.178;21.016;2023-06-22T03:26:50;19.80;99.90
17033;DHT22;63208;52.178;21.016;2023-06-22T03:29:18;19.80;99.90
17033;DHT22;63208;52.178;21.016;2023-06-22T03:31:45;19.90;99.90
17033;DHT22;63208;52.178;21.016;2023-06-22T03:34:12;19.80;99.90
17033;DHT22;63208;52.178;21.016;2023-06-22T03:36:39;19.90;99.90
17033;DHT22;63208;52.178;21.016;2023-06-22T03:39:05;19.80;99.90
17033;DHT22;63208;52.178;21.016;2023-06-22T03:41:32;19.90;99.90
17033;DHT22;63208;52.178;21.016;2023-06-22T03:43:59;19.90;99.90
17033;DHT22;63208;52.178;21.016;2023-06-22T03:46:27;19.90;99.90
17033;DHT22;63208;52.178;21.016;2023-06-22T03:48:54;20.00;99.90
17033;DHT22;63208;52.178;21.016;2023-06-22T03:51:21;19.90;99.90
17033;DHT22;63208;52.178;21.016;2023-06-22T03:53:48;20.00;99.90
17033;DHT22;63208;52.178;21.016;2023-06-22T03:56:14;20.00;99.90
17033;DHT22;63208;52.178;21.016;2023-06-22T03:58:46;20.00;99.90
17033;DHT22;63208;52.178;21.016;2023-06-22T04:01:12;23.30;99.90
17033;DHT22;63208;52.178;21.016;2023-06-22T04:03:41;20.10;99.90
17033;DHT22;63208;52.178;21.016;2023-06-22T04:06:08;20.10;99.90
17033;DHT22;63208;52.178;21.016;2023-06-22T04:08:35;20.10;99.90
17033;DHT22;63208;52.178;21.016;2023-06-22T04:11:02;20.20;99.90
17033;DHT22;63208;52.178;21.016;2023-06-22T04:13:29;20.20;99.90
17033;DHT22;63208;52.178;21.016;2023-06-22T04:15:55;20.20;99.90
17033;DHT22;63208;52.178;21.016;2023-06-22T04:18:22;20.30;99.90
17033;DHT22;63208;52.178;21.016;2023-06-22T04:20:50;20.30;99.90
17033;DHT22;63208;52.178;21.016;2023-06-22T04:23:17;20.30;99.90
17033;DHT22;63208;52.178;21.016;2023-06-22T04:25:44;20.30;99.90
17033;DHT22;63208;52.178;21.016;2023-06-22T04:28:11;20.40;99.90
17033;DHT22;63208;52.178;21.016;2023-06-22T04:30:38;20.40;99.90
17033;DHT22;63208;52.178;21.016;2023-06-22T04:33:12;20.50;99.90
17033;DHT22;63208;52.178;21.016;2023-06-22T04:35:39;20.50;99.90
17033;DHT22;63208;52.178;21.016;2023-06-22T04:38:08;20.40;99.90
17033;DHT22;63208;52.178;21.016;2023-06-22T04:40:35;20.40;99.90
17033;DHT22;63208;52.178;21.016;2023-06-22T04:43:01;20.50;99.90
17033;DHT22;63208;52.178;21.016;2023-06-22T04:45:29;20.50;99.90
17033;DHT22;63208;52.178;21.016;2023-06-22T04:47:56;20.50;99.90
17033;DHT22;63208;52.178;21.016;2023-06-22T04:50:23;20.50;99.90
17033;DHT22;63208;52.178;21.016;2023-06-22T04:52:50;20.50;99.90
17033;DHT22;63208;52.178;21.016;2023-06-22T04:55:19;20.50;99.90
17033;DHT22;63208;52.178;21.016;2023-06-22T04:57:46;20.40;99.90
17033;DHT22;63208;52.178;21.016;2023-06-22T05:00:15;20.30;99.90
17033;DHT22;63208;52.178;21.016;2023-06-22T05:02:44;20.40;99.90
17033;DHT22;63208;52.178;21.016;2023-06-22T05:05:11;20.30;99.90
17033;DHT22;63208;52.178;21.016;2023-06-22T05:07:41;20.40;99.90
17033;DHT22;63208;52.178;21.016;2023-06-22T05:10:09;19.90;99.90
17033;DHT22;63208;52.178;21.016;2023-06-22T05:12:38;20.30;99.90
17033;DHT22;63208;52.178;21.016;2023-06-22T05:15:07;20.00;99.90
17033;DHT22;63208;52.178;21.016;2023-06-22T05:17:34;20.30;99.90
17033;DHT22;63208;52.178;21.016;2023-06-22T05:20:01;20.40;99.90
17033;DHT22;63208;52.178;21.016;2023-06-22T05:22:31;20.40;99.90
17033;DHT22;63208;52.178;21.016;2023-06-22T05:24:58;20.50;99.90
17033;DHT22;63208;52.178;21.016;2023-06-22T05:27:25;20.50;99.90
17033;DHT22;63208;52.178;21.016;2023-06-22T05:29:53;20.50;99.90
17033;DHT22;63208;52.178;21.016;2023-06-22T05:32:20;20.50;99.90
17033;DHT22;63208;52.178;21.016;2023-06-22T05:34:47;20.50;99.90
17033;DHT22;63208;52.178;21.016;2023-06-22T05:37:14;20.60;99.90
17033;DHT22;63208;52.178;21.016;2023-06-22T05:39:40;20.60;99.90
17033;DHT22;63208;52.178;21.016;2023-06-22T05:42:08;20.70;99.90
17033;DHT22;63208;52.178;21.016;2023-06-22T05:44:35;20.60;99.90
17033;DHT22;63208;52.178;21.016;2023-06-22T05:47:04;20.70;99.90
17033;DHT22;63208;52.178;21.016;2023-06-22T05:53:21;20.90;99.90
17033;DHT22;63208;52.178;21.016;2023-06-22T05:55:48;20.90;99.90
17033;DHT22;63208;52.178;21.016;2023-06-22T05:58:15;20.90;99.90
17033;DHT22;63208;52.178;21.016;2023-06-22T06:00:42;20.60;99.90
17033;DHT22;63208;52.178;21.016;2023-06-22T06:03:10;21.00;99.90
17033;DHT22;63208;52.178;21.016;2023-06-22T06:05:37;21.70;99.90
17033;DHT22;63208;52.178;21.016;2023-06-22T06:08:05;20.70;99.90
17033;DHT22;63208;52.178;21.016;2023-06-22T06:10:33;20.80;99.90
17033;DHT22;63208;52.178;21.016;2023-06-22T06:13:00;20.80;99.90
17033;DHT22;63208;52.178;21.016;2023-06-22T06:15:29;20.80;99.90
17033;DHT22;63208;52.178;21.016;2023-06-22T06:17:56;20.90;99.90
17033;DHT22;63208;52.178;21.016;2023-06-22T06:20:26;20.80;99.90
17033;DHT22;63208;52.178;21.016;2023-06-22T06:22:53;21.20;99.90
17033;DHT22;63208;52.178;21.016;2023-06-22T06:25:20;20.70;99.90
17033;DHT22;63208;52.178;21.016;2023-06-22T06:27:48;20.70;99.90
17033;DHT22;63208;52.178;21.016;2023-06-22T06:30:16;20.70;99.90
17033;DHT22;63208;52.178;21.016;2023-06-22T06:32:44;20.80;99.90
17033;DHT22;63208;52.178;21.016;2023-06-22T06:35:13;20.80;99.90
17033;DHT22;63208;52.178;21.016;2023-06-22T06:38:04;20.90;99.90
17033;DHT22;63208;52.178;21.016;2023-06-22T06:40:31;21.10;99.90
17033;DHT22;63208;52.178;21.016;2023-06-22T06:42:57;20.70;99.90
17033;DHT22;63208;52.178;21.016;2023-06-22T06:45:25;21.10;99.90
17033;DHT22;63208;52.178;21.016;2023-06-22T06:48:14;21.00;99.90
17033;DHT22;63208;52.178;21.016;2023-06-22T06:51:01;21.20;99.90
17033;DHT22;63208;52.178;21.016;2023-06-22T06:53:29;21.10;99.90
17033;DHT22;63208;52.178;21.016;2023-06-22T06:55:56;21.20;99.90
17033;DHT22;63208;52.178;21.016;2023-06-22T06:58:23;21.30;99.90
17033;DHT22;63208;52.178;21.016;2023-06-22T07:00:50;21.30;99.90
17033;DHT22;63208;52.178;21.016;2023-06-22T07:03:17;21.40;99.90
17033;DHT22;63208;52.178;21.016;2023-06-22T07:08:55;22.00;99.90
17033;DHT22;63208;52.178;21.016;2023-06-22T07:11:22;21.80;99.90
17033;DHT22;63208;52.178;21.016;2023-06-22T07:13:49;21.60;99.90
17033;DHT22;63208;52.178;21.016;2023-06-22T07:16:15;21.70;99.90
17033;DHT22;63208;52.178;21.016;2023-06-22T07:18:42;21.80;99.90
17033;DHT22;63208;52.178;21.016;2023-06-22T07:21:09;21.80;99.90
17033;DHT22;63208;52.178;21.016;2023-06-22T07:23:36;21.80;99.90
17033;DHT22;63208;52.178;21.016;2023-06-22T07:26:04;21.90;99.90
17033;DHT22;63208;52.178;21.016;2023-06-22T07:28:32;21.90;99.90
17033;DHT22;63208;52.178;21.016;2023-06-22T07:31:02;21.80;99.90
17033;DHT22;63208;52.178;21.016;2023-06-22T07:33:29;21.90;99.90
17033;DHT22;63208;52.178;21.016;2023-06-22T07:35:56;22.00;99.90
17033;DHT22;63208;52.178;21.016;2023-06-22T07:38:23;22.40;99.90
17033;DHT22;63208;52.178;21.016;2023-06-22T07:40:50;22.00;99.90
17033;DHT22;63208;52.178;21.016;2023-06-22T07:43:20;22.20;99.90
17033;DHT22;63208;52.178;21.016;2023-06-22T07:45:48;22.20;99.90
17033;DHT22;63208;52.178;21.016;2023-06-22T07:48:17;22.20;99.90
17033;DHT22;63208;52.178;21.016;2023-06-22T07:50:44;22.20;99.90
17033;DHT22;63208;52.178;21.016;2023-06-22T07:53:11;22.30;99.90
17033;DHT22;63208;52.178;21.016;2023-06-22T07:55:37;22.50;99.90
17033;DHT22;63208;52.178;21.016;2023-06-22T07:58:05;22.60;99.90
17033;DHT22;63208;52.178;21.016;2023-06-22T08:00:33;22.60;99.90
17033;DHT22;63208;52.178;21.016;2023-06-22T08:03:00;22.20;99.90
17033;DHT22;63208;52.178;21.016;2023-06-22T08:05:29;23.20;99.90
17033;DHT22;63208;52.178;21.016;2023-06-22T08:07:56;23.00;99.90
17033;DHT22;63208;52.178;21.016;2023-06-22T08:10:23;23.20;99.90
17033;DHT22;63208;52.178;21.016;2023-06-22T08:12:49;23.20;99.90
17033;DHT22;63208;52.178;21.016;2023-06-22T08:17:45;22.50;99.90
17033;DHT22;63208;52.178;21.016;2023-06-22T08:20:12;23.50;99.90
17033;DHT22;63208;52.178;21.016;2023-06-22T08:22:39;23.30;99.90
17033;DHT22;63208;52.178;21.016;2023-06-22T08:25:08;23.60;99.90
17033;DHT22;63208;52.178;21.016;2023-06-22T08:30:03;23.40;99.90
17033;DHT22;63208;52.178;21.016;2023-06-22T08:32:30;23.50;99.90
17033;DHT22;63208;52.178;21.016;2023-06-22T08:35:00;22.70;99.90
17033;DHT22;63208;52.178;21.016;2023-06-22T08:37:26;23.50;99.90
17033;DHT22;63208;52.178;21.016;2023-06-22T08:44:51;23.20;99.90
17033;DHT22;63208;52.178;21.016;2023-06-22T08:47:19;24.00;99.90
17033;DHT22;63208;52.178;21.016;2023-06-22T08:49:46;23.10;99.90
17033;DHT22;63208;52.178;21.016;2023-06-22T08:52:15;24.00;99.90
17033;DHT22;63208;52.178;21.016;2023-06-22T08:54:41;23.90;99.90
17033;DHT22;63208;52.178;21.016;2023-06-22T08:57:08;23.50;99.90
17033;DHT22;63208;52.178;21.016;2023-06-22T09:04:29;23.80;99.90
17033;DHT22;63208;52.178;21.016;2023-06-22T09:06:59;23.80;99.90
17033;DHT22;63208;52.178;21.016;2023-06-22T09:09:28;23.90;99.90
17033;DHT22;63208;52.178;21.016;2023-06-22T09:11:55;24.00;99.90
17033;DHT22;63208;52.178;21.016;2023-06-22T09:14:21;24.40;99.90
17033;DHT22;63208;52.178;21.016;2023-06-22T09:16:48;23.50;99.90
17033;DHT22;63208;52.178;21.016;2023-06-22T09:19:15;24.40;99.90
17033;DHT22;63208;52.178;21.016;2023-06-22T09:22:00;24.10;99.90
17033;DHT22;63208;52.178;21.016;2023-06-22T09:24:43;24.10;99.90
17033;DHT22;63208;52.178;21.016;2023-06-22T09:27:31;24.30;99.90
17033;DHT22;63208;52.178;21.016;2023-06-22T09:29:57;24.40;99.90
17033;DHT22;63208;52.178;21.016;2023-06-22T09:34:52;24.10;99.90
17033;DHT22;63208;52.178;21.016;2023-06-22T09:37:18;24.10;99.90
17033;DHT22;63208;52.178;21.016;2023-06-22T09:39:47;24.10;99.90
17033;DHT22;63208;52.178;21.016;2023-06-22T09:42:13;24.30;99.90
17033;DHT22;63208;52.178;21.016;2023-06-22T09:44:40;24.40;99.90
17033;DHT22;63208;52.178;21.016;2023-06-22T09:47:07;24.50;99.90
17033;DHT22;63208;52.178;21.016;2023-06-22T09:49:34;24.60;99.90
17033;DHT22;63208;52.178;21.016;2023-06-22T09:52:01;24.40;99.90
17033;DHT22;63208;52.178;21.016;2023-06-22T09:54:28;24.40;99.90
17033;DHT22;63208;52.178;21.016;2023-06-22T09:56:56;24.50;99.90
17033;DHT22;63208;52.178;21.016;2023-06-22T09:59:23;24.60;99.90
17033;DHT22;63208;52.178;21.016;2023-06-22T10:01:49;24.80;99.90
17033;DHT22;63208;52.178;21.016;2023-06-22T10:04:16;25.30;99.90
17033;DHT22;63208;52.178;21.016;2023-06-22T10:06:43;25.00;99.90
17033;DHT22;63208;52.178;21.016;2023-06-22T10:09:10;24.90;99.90
17033;DHT22;63208;52.178;21.016;2023-06-22T10:11:36;24.80;99.90
17033;DHT22;63208;52.178;21.016;2023-06-22T10:14:05;25.00;99.90
17033;DHT22;63208;52.178;21.016;2023-06-22T10:16:32;24.90;99.90
17033;DHT22;63208;52.178;21.016;2023-06-22T10:19:01;25.20;99.90
17033;DHT22;63208;52.178;21.016;2023-06-22T10:21:27;25.30;99.90
17033;DHT22;63208;52.178;21.016;2023-06-22T10:23:54;25.40;99.90
17033;DHT22;63208;52.178;21.016;2023-06-22T10:26:46;25.20;99.90
17033;DHT22;63208;52.178;21.016;2023-06-22T10:29:14;25.40;99.90
17033;DHT22;63208;52.178;21.016;2023-06-22T10:31:41;25.80;99.90
17033;DHT22;63208;52.178;21.016;2023-06-22T10:36:38;25.50;99.90
17033;DHT22;63208;52.178;21.016;2023-06-22T10:41:32;25.60;99.90
17033;DHT22;63208;52.178;21.016;2023-06-22T10:43:59;25.70;99.90
17033;DHT22;63208;52.178;21.016;2023-06-22T10:46:27;25.60;99.90
17033;DHT22;63208;52.178;21.016;2023-06-22T10:48:54;25.60;99.90
17033;DHT22;63208;52.178;21.016;2023-06-22T10:51:22;25.70;99.90
17033;DHT22;63208;52.178;21.016;2023-06-22T10:53:49;25.80;99.90
17033;DHT22;63208;52.178;21.016;2023-06-22T10:56:17;25.90;99.90
17033;DHT22;63208;52.178;21.016;2023-06-22T10:58:45;26.10;99.90
17033;DHT22;63208;52.178;21.016;2023-06-22T11:01:11;26.00;99.90
17033;DHT22;63208;52.178;21.016;2023-06-22T11:03:40;26.00;99.90
17033;DHT22;63208;52.178;21.016;2023-06-22T11:06:06;26.00;99.90
17033;DHT22;63208;52.178;21.016;2023-06-22T11:08:33;26.20;99.90
17033;DHT22;63208;52.178;21.016;2023-06-22T11:11:00;25.90;99.90
17033;DHT22;63208;52.178;21.016;2023-06-22T11:13:27;26.00;99.90
17033;DHT22;63208;52.178;21.016;2023-06-22T11:15:53;26.00;99.90
17033;DHT22;63208;52.178;21.016;2023-06-22T11:18:36;26.60;99.90
17033;DHT22;63208;52.178;21.016;2023-06-22T11:21:04;26.20;99.90
17033;DHT22;63208;52.178;21.016;2023-06-22T11:23:31;26.20;99.90
17033;DHT22;63208;52.178;21.016;2023-06-22T11:25:58;26.20;99.90
17033;DHT22;63208;52.178;21.016;2023-06-22T11:28:24;26.40;99.90
17033;DHT22;63208;52.178;21.016;2023-06-22T11:30:51;26.70;99.90
17033;DHT22;63208;52.178;21.016;2023-06-22T11:33:18;26.80;99.90
17033;DHT22;63208;52.178;21.016;2023-06-22T11:35:45;26.80;99.90
17033;DHT22;63208;52.178;21.016;2023-06-22T11:38:14;27.00;99.90
17033;DHT22;63208;52.178;21.016;2023-06-22T11:40:40;26.70;99.90
17033;DHT22;63208;52.178;21.016;2023-06-22T11:43:07;27.30;99.90
17033;DHT22;63208;52.178;21.016;2023-06-22T11:45:34;27.60;99.90
17033;DHT22;63208;52.178;21.016;2023-06-22T11:48:01;27.10;99.90
17033;DHT22;63208;52.178;21.016;2023-06-22T11:50:28;27.10;99.90
17033;DHT22;63208;52.178;21.016;2023-06-22T11:52:55;27.20;99.90
17033;DHT22;63208;52.178;21.016;2023-06-22T11:55:23;27.10;99.90
17033;DHT22;63208;52.178;21.016;2023-06-22T11:57:55;27.10;99.90
17033;DHT22;63208;52.178;21.016;2023-06-22T12:00:33;27.40;99.90
17033;DHT22;63208;52.178;21.016;2023-06-22T12:03:08;27.40;99.90
17033;DHT22;63208;52.178;21.016;2023-06-22T12:05:37;27.40;99.90
17033;DHT22;63208;52.178;21.016;2023-06-22T12:08:04;27.30;99.90
17033;DHT22;63208;52.178;21.016;2023-06-22T12:10:32;27.30;99.90
17033;DHT22;63208;52.178;21.016;2023-06-22T12:12:59;27.10;99.90
17033;DHT22;63208;52.178;21.016;2023-06-22T12:25:39;27.50;99.90
17033;DHT22;63208;52.178;21.016;2023-06-22T12:40:27;28.00;99.90
17033;DHT22;63208;52.178;21.016;2023-06-22T12:42:55;28.00;99.90
17033;DHT22;63208;52.178;21.016;2023-06-22T12:45:22;27.70;99.90
17033;DHT22;63208;52.178;21.016;2023-06-22T12:47:48;28.10;99.90
17033;DHT22;63208;52.178;21.016;2023-06-22T12:50:16;28.10;99.90
17033;DHT22;63208;52.178;21.016;2023-06-22T12:52:43;27.90;99.90
17033;DHT22;63208;52.178;21.016;2023-06-22T12:55:09;28.00;99.90
17033;DHT22;63208;52.178;21.016;2023-06-22T12:57:36;28.00;99.90
17033;DHT22;63208;52.178;21.016;2023-06-22T13:00:06;28.40;99.90
17033;DHT22;63208;52.178;21.016;2023-06-22T13:02:35;28.30;99.90
17033;DHT22;63208;52.178;21.016;2023-06-22T13:05:02;28.50;99.90
17033;DHT22;63208;52.178;21.016;2023-06-22T13:07:43;28.80;99.90
17033;DHT22;63208;52.178;21.016;2023-06-22T13:10:11;28.80;99.90
17033;DHT22;63208;52.178;21.016;2023-06-22T13:16:01;31.10;99.90
17033;DHT22;63208;52.178;21.016;2023-06-22T13:18:28;29.20;99.90
17033;DHT22;63208;52.178;21.016;2023-06-22T13:20:55;29.00;99.90
17033;DHT22;63208;52.178;21.016;2023-06-22T13:23:23;28.60;99.90
17033;DHT22;63208;52.178;21.016;2023-06-22T13:25:51;28.20;99.90
17033;DHT22;63208;52.178;21.016;2023-06-22T13:28:18;28.20;99.90
17033;DHT22;63208;52.178;21.016;2023-06-22T13:30:46;28.20;99.90
17033;DHT22;63208;52.178;21.016;2023-06-22T13:33:15;28.30;99.90
17033;DHT22;63208;52.178;21.016;2023-06-22T13:38:23;28.40;99.50
17033;DHT22;63208;52.178;21.016;2023-06-22T13:40:50;28.60;99.30
17033;DHT22;63208;52.178;21.016;2023-06-22T13:43:17;28.50;98.60
17033;DHT22;63208;52.178;21.016;2023-06-22T13:45:43;29.20;97.30
17033;DHT22;63208;52.178;21.016;2023-06-22T13:48:10;28.70;97.40
17033;DHT22;63208;52.178;21.016;2023-06-22T13:50:38;29.80;97.40
17033;DHT22;63208;52.178;21.016;2023-06-22T13:53:05;30.40;95.90
17033;DHT22;63208;52.178;21.016;2023-06-22T13:55:40;30.50;96.40
17033;DHT22;63208;52.178;21.016;2023-06-22T13:58:06;30.50;95.80
17033;DHT22;63208;52.178;21.016;2023-06-22T14:00:33;29.60;96.10
17033;DHT22;63208;52.178;21.016;2023-06-22T14:03:24;29.10;95.60
17033;DHT22;63208;52.178;21.016;2023-06-22T14:05:52;30.70;94.90
17033;DHT22;63208;52.178;21.016;2023-06-22T14:08:21;30.50;91.70
17033;DHT22;63208;52.178;21.016;2023-06-22T14:10:49;30.50;92.20
17033;DHT22;63208;52.178;21.016;2023-06-22T14:13:16;31.30;92.20
17033;DHT22;63208;52.178;21.016;2023-06-22T14:15:43;30.80;92.60
17033;DHT22;63208;52.178;21.016;2023-06-22T14:18:09;31.30;92.40
17033;DHT22;63208;52.178;21.016;2023-06-22T14:20:36;31.40;91.90
17033;DHT22;63208;52.178;21.016;2023-06-22T14:23:04;33.00;91.40
17033;DHT22;63208;52.178;21.016;2023-06-22T14:25:31;34.00;84.80
17033;DHT22;63208;52.178;21.016;2023-06-22T14:28:07;34.60;77.20
17033;DHT22;63208;52.178;21.016;2023-06-22T14:30:34;34.60;77.60
17033;DHT22;63208;52.178;21.016;2023-06-22T14:38:20;32.20;80.00
17033;DHT22;63208;52.178;21.016;2023-06-22T14:43:15;31.60;83.40
17033;DHT22;63208;52.178;21.016;2023-06-22T14:45:41;31.70;83.90
17033;DHT22;63208;52.178;21.016;2023-06-22T14:48:08;31.10;79.40
17033;DHT22;63208;52.178;21.016;2023-06-22T14:50:35;31.00;83.80
17033;DHT22;63208;52.178;21.016;2023-06-22T14:53:03;31.60;83.40
17033;DHT22;63208;52.178;21.016;2023-06-22T14:55:31;32.20;82.10
17033;DHT22;63208;52.178;21.016;2023-06-22T14:57:57;32.60;79.70
17033;DHT22;63208;52.178;21.016;2023-06-22T15:00:24;33.00;79.20
17033;DHT22;63208;52.178;21.016;2023-06-22T15:02:51;33.70;77.50
17033;DHT22;63208;52.178;21.016;2023-06-22T15:07:45;32.50;78.10
17033;DHT22;63208;52.178;21.016;2023-06-22T15:10:12;31.60;81.60
17033;DHT22;63208;52.178;21.016;2023-06-22T15:12:40;31.30;81.40
17033;DHT22;63208;52.178;21.016;2023-06-22T15:15:08;30.80;82.20
17033;DHT22;63208;52.178;21.016;2023-06-22T15:20:02;30.50;83.70
17033;DHT22;63208;52.178;21.016;2023-06-22T15:22:30;30.30;82.60
17033;DHT22;63208;52.178;21.016;2023-06-22T15:24:57;30.40;83.50
17033;DHT22;63208;52.178;21.016;2023-06-22T15:27:33;30.40;82.90
17033;DHT22;63208;52.178;21.016;2023-06-22T15:30:01;30.40;83.60
17033;DHT22;63208;52.178;21.016;2023-06-22T15:32:35;30.90;82.20
17033;DHT22;63208;52.178;21.016;2023-06-22T15:35:11;30.90;83.30
17033;DHT22;63208;52.178;21.016;2023-06-22T15:40:08;30.40;82.40
17033;DHT22;63208;52.178;21.016;2023-06-22T15:42:35;30.40;82.60
17033;DHT22;63208;52.178;21.016;2023-06-22T15:45:04;31.00;82.50
17033;DHT22;63208;52.178;21.016;2023-06-22T15:47:31;30.50;82.10
17033;DHT22;63208;52.178;21.016;2023-06-22T15:49:58;30.20;82.30
17033;DHT22;63208;52.178;21.016;2023-06-22T15:52:25;29.70;82.80
17033;DHT22;63208;52.178;21.016;2023-06-22T16:03:16;28.10;84.80
17033;DHT22;63208;52.178;21.016;2023-06-22T16:14:54;28.50;88.70
17033;DHT22;63208;52.178;21.016;2023-06-22T16:17:21;27.40;87.10
17033;DHT22;63208;52.178;21.016;2023-06-22T16:19:49;27.50;87.90
17033;DHT22;63208;52.178;21.016;2023-06-22T16:22:20;27.70;88.30
17033;DHT22;63208;52.178;21.016;2023-06-22T16:24:50;27.90;90.20
17033;DHT22;63208;52.178;21.016;2023-06-22T16:27:20;27.50;87.40
17033;DHT22;63208;52.178;21.016;2023-06-22T16:32:24;27.30;88.10
17033;DHT22;63208;52.178;21.016;2023-06-22T16:35:01;27.10;88.20
17033;DHT22;63208;52.178;21.016;2023-06-22T16:40:21;27.10;88.90
17033;DHT22;63208;52.178;21.016;2023-06-22T16:42:58;27.10;89.20
17033;DHT22;63208;52.178;21.016;2023-06-22T16:48:04;27.00;88.30
17033;DHT22;63208;52.178;21.016;2023-06-22T16:50:34;27.00;90.20
17033;DHT22;63208;52.178;21.016;2023-06-22T16:55:29;27.00;90.00
17033;DHT22;63208;52.178;21.016;2023-06-22T17:01:19;27.40;90.30
17033;DHT22;63208;52.178;21.016;2023-06-22T17:03:53;27.10;91.50
17033;DHT22;63208;52.178;21.016;2023-06-22T17:06:48;27.00;90.60
17033;DHT22;63208;52.178;21.016;2023-06-22T17:09:25;26.70;91.00
17033;DHT22;63208;52.178;21.016;2023-06-22T17:17:11;26.90;91.30
17033;DHT22;63208;52.178;21.016;2023-06-22T17:19:39;26.80;91.40
17033;DHT22;63208;52.178;21.016;2023-06-22T17:22:08;26.90;91.40
17033;DHT22;63208;52.178;21.016;2023-06-22T17:24:35;26.80;91.50
17033;DHT22;63208;52.178;21.016;2023-06-22T17:27:03;26.80;91.60
17033;DHT22;63208;52.178;21.016;2023-06-22T17:29:31;26.80;92.00
17033;DHT22;63208;52.178;21.016;2023-06-22T17:31:58;26.70;92.00
17033;DHT22;63208;52.178;21.016;2023-06-22T17:34:27;26.80;91.80
17033;DHT22;63208;52.178;21.016;2023-06-22T17:36:56;26.80;91.90
17033;DHT22;63208;52.178;21.016;2023-06-22T17:39:26;26.80;92.30
17033;DHT22;63208;52.178;21.016;2023-06-22T17:44:22;26.80;91.90
17033;DHT22;63208;52.178;21.016;2023-06-22T17:46:51;26.70;92.60
17033;DHT22;63208;52.178;21.016;2023-06-22T17:49:18;26.70;92.60
17033;DHT22;63208;52.178;21.016;2023-06-22T17:51:45;26.70;93.10
17033;DHT22;63208;52.178;21.016;2023-06-22T17:54:15;26.60;92.60
17033;DHT22;63208;52.178;21.016;2023-06-22T18:02:21;26.60;92.30
17033;DHT22;63208;52.178;21.016;2023-06-22T18:04:57;26.50;92.60
17033;DHT22;63208;52.178;21.016;2023-06-22T18:07:26;26.50;93.00
17033;DHT22;63208;52.178;21.016;2023-06-22T18:10:05;26.50;93.90
17033;DHT22;63208;52.178;21.016;2023-06-22T18:12:36;26.40;93.40
17033;DHT22;63208;52.178;21.016;2023-06-22T18:15:04;26.40;93.20
17033;DHT22;63208;52.178;21.016;2023-06-22T18:17:53;26.40;92.80
17033;DHT22;63208;52.178;21.016;2023-06-22T18:27:46;26.30;93.00
17033;DHT22;63208;52.178;21.016;2023-06-22T18:30:14;26.00;93.50